sensor_id;sensor_type;location;lat;lon;timestamp;temperature;humidity
22908;DHT22;11620;50.050;8.690;2023-02-28T00:00:07;-0.20;99.90
22908;DHT22;11620;50.050;8.690;2023-02-28T00:02:56;-0.20;99.90
22908;DHT22;11620;50.050;8.690;2023-02-28T00:05:42;-0.20;99.90
22908;DHT22;11620;50.050;8.690;2023-02-28T00:08:29;-0.20;99.90
22908;DHT22;11620;50.050;8.690;2023-02-28T00:11:16;-0.20;99.90
22908;DHT22;11620;50.050;8.690;2023-02-28T00:14:02;-0.20;99.90
22908;DHT22;11620;50.050;8.690;2023-02-28T00:16:49;-0.20;99.90
22908;DHT22;11620;50.050;8.690;2023-02-28T00:19:35;-0.20;99.90
22908;DHT22;11620;50.050;8.690;2023-02-28T00:22:21;-0.20;99.90
22908;DHT22;11620;50.050;8.690;2023-02-28T00:25:14;-0.30;99.90
22908;DHT22;11620;50.050;8.690;2023-02-28T00:28:01;-0.40;99.90
22908;DHT22;11620;50.050;8.690;2023-02-28T00:30:47;-0.30;99.90
22908;DHT22;11620;50.050;8.690;2023-02-28T00:33:33;-0.30;99.90
22908;DHT22;11620;50.050;8.690;2023-02-28T00:36:20;-0.30;99.90
22908;DHT22;11620;50.050;8.690;2023-02-28T00:39:06;-0.30;99.90
22908;DHT22;11620;50.050;8.690;2023-02-28T00:41:52;-0.30;99.90
22908;DHT22;11620;50.050;8.690;2023-02-28T00:44:39;-0.30;99.90
22908;DHT22;11620;50.050;8.690;2023-02-28T00:47:25;-0.30;99.90
22908;DHT22;11620;50.050;8.690;2023-02-28T00:50:12;-0.30;99.90
22908;DHT22;11620;50.050;8.690;2023-02-28T00:52:58;-0.30;99.90
22908;DHT22;11620;50.050;8.690;2023-02-28T00:55:44;-0.30;99.90
22908;DHT22;11620;50.050;8.690;2023-02-28T00:58:31;-0.40;99.90
22908;DHT22;11620;50.050;8.690;2023-02-28T01:01:18;-0.40;99.90
22908;DHT22;11620;50.050;8.690;2023-02-28T01:04:04;-0.40;99.90
22908;DHT22;11620;50.050;8.690;2023-02-28T01:06:50;-0.40;99.90
22908;DHT22;11620;50.050;8.690;2023-02-28T01:09:37;-0.40;99.90
22908;DHT22;11620;50.050;8.690;2023-02-28T01:12:23;-0.40;99.90
22908;DHT22;11620;50.050;8.690;2023-02-28T01:15:10;-0.40;99.90
22908;DHT22;11620;50.050;8.690;2023-02-28T01:17:57;-0.40;99.90
22908;DHT22;11620;50.050;8.690;2023-02-28T01:20:43;-0.50;99.90
22908;DHT22;11620;50.050;8.690;2023-02-28T01:23:30;-0.50;99.90
22908;DHT22;11620;50.050;8.690;2023-02-28T01:26:21;-0.60;99.90
22908;DHT22;11620;50.050;8.690;2023-02-28T01:29:08;-0.60;99.90
22908;DHT22;11620;50.050;8.690;2023-02-28T01:31:54;-0.60;99.90
22908;DHT22;11620;50.050;8.690;2023-02-28T01:34:41;-0.60;99.90
22908;DHT22;11620;50.050;8.690;2023-02-28T01:37:27;-0.70;99.90
22908;DHT22;11620;50.050;8.690;2023-02-28T01:40:14;-0.70;99.90
22908;DHT22;11620;50.050;8.690;2023-02-28T01:43:00;-0.70;99.90
22908;DHT22;11620;50.050;8.690;2023-02-28T01:45:47;-0.70;99.90
22908;DHT22;11620;50.050;8.690;2023-02-28T01:48:36;-0.70;99.90
22908;DHT22;11620;50.050;8.690;2023-02-28T01:54:17;-0.70;99.90
22908;DHT22;11620;50.050;8.690;2023-02-28T01:57:12;-0.70;99.90
22908;DHT22;11620;50.050;8.690;2023-02-28T02:00:12;-0.70;99.90
22908;DHT22;11620;50.050;8.690;2023-02-28T02:03:07;-0.80;99.90
22908;DHT22;11620;50.050;8.690;2023-02-28T02:05:54;-0.80;99.90
22908;DHT22;11620;50.050;8.690;2023-02-28T02:08:41;-0.90;99.90
22908;DHT22;11620;50.050;8.690;2023-02-28T02:11:27;-0.90;99.90
22908;DHT22;11620;50.050;8.690;2023-02-28T02:24:00;-1.00;99.90
22908;DHT22;11620;50.050;8.690;2023-02-28T02:27:02;-1.10;99.90
22908;DHT22;11620;50.050;8.690;2023-02-28T02:30:21;-1.10;99.90
22908;DHT22;11620;50.050;8.690;2023-02-28T02:36:35;-1.10;99.90
22908;DHT22;11620;50.050;8.690;2023-02-28T02:39:40;-1.20;99.90
22908;DHT22;11620;50.050;8.690;2023-02-28T02:42:53;-1.30;99.90
22908;DHT22;11620;50.050;8.690;2023-02-28T02:45:38;-1.30;99.90
22908;DHT22;11620;50.050;8.690;2023-02-28T02:48:29;-1.30;99.90
22908;DHT22;11620;50.050;8.690;2023-02-28T02:51:22;-1.30;99.90
22908;DHT22;11620;50.050;8.690;2023-02-28T02:54:13;-1.30;99.90
22908;DHT22;11620;50.050;8.690;2023-02-28T02:57:05;-1.30;99.90
22908;DHT22;11620;50.050;8.690;2023-02-28T02:59:55;-1.40;99.90
22908;DHT22;11620;50.050;8.690;2023-02-28T03:02:43;-1.40;99.90
22908;DHT22;11620;50.050;8.690;2023-02-28T03:05:35;-1.40;99.90
22908;DHT22;11620;50.050;8.690;2023-02-28T03:08:26;-1.40;99.90
22908;DHT22;11620;50.050;8.690;2023-02-28T03:11:14;-1.40;99.90
22908;DHT22;11620;50.050;8.690;2023-02-28T03:21:03;-1.50;99.90
22908;DHT22;11620;50.050;8.690;2023-02-28T03:24:40;-1.50;99.90
22908;DHT22;11620;50.050;8.690;2023-02-28T03:33:30;-1.60;99.90
22908;DHT22;11620;50.050;8.690;2023-02-28T03:36:19;-1.60;99.90
22908;DHT22;11620;50.050;8.690;2023-02-28T03:39:08;-1.70;99.90
22908;DHT22;11620;50.050;8.690;2023-02-28T03:41:59;-1.70;99.90
22908;DHT22;11620;50.050;8.690;2023-02-28T03:44:57;-1.70;99.90
22908;DHT22;11620;50.050;8.690;2023-02-28T03:48:12;-1.70;99.90
22908;DHT22;11620;50.050;8.690;2023-02-28T03:51:00;-1.70;99.90
22908;DHT22;11620;50.050;8.690;2023-02-28T03:53:52;-1.70;99.90
22908;DHT22;11620;50.050;8.690;2023-02-28T03:56:45;-1.70;99.90
22908;DHT22;11620;50.050;8.690;2023-02-28T03:59:42;-1.70;99.90
22908;DHT22;11620;50.050;8.690;2023-02-28T04:02:29;-1.70;99.90
22908;DHT22;11620;50.050;8.690;2023-02-28T04:05:16;-1.70;99.90
22908;DHT22;11620;50.050;8.690;2023-02-28T04:08:06;-1.70;99.90
22908;DHT22;11620;50.050;8.690;2023-02-28T04:14:02;-1.80;99.90
22908;DHT22;11620;50.050;8.690;2023-02-28T04:16:49;-1.80;99.90
22908;DHT22;11620;50.050;8.690;2023-02-28T04:19:37;-1.80;99.90
22908;DHT22;11620;50.050;8.690;2023-02-28T04:22:23;-1.70;99.90
22908;DHT22;11620;50.050;8.690;2023-02-28T04:25:12;-1.70;99.90
22908;DHT22;11620;50.050;8.690;2023-02-28T04:27:59;-1.70;99.90
22908;DHT22;11620;50.050;8.690;2023-02-28T04:30:45;-1.80;99.90
22908;DHT22;11620;50.050;8.690;2023-02-28T04:33:32;-1.80;99.90
22908;DHT22;11620;50.050;8.690;2023-02-28T04:36:19;-1.70;99.90
22908;DHT22;11620;50.050;8.690;2023-02-28T04:39:05;-1.70;99.90
22908;DHT22;11620;50.050;8.690;2023-02-28T04:41:51;-1.80;99.90
22908;DHT22;11620;50.050;8.690;2023-02-28T04:44:38;-1.80;99.90
22908;DHT22;11620;50.050;8.690;2023-02-28T04:47:24;-1.80;99.90
22908;DHT22;11620;50.050;8.690;2023-02-28T04:50:10;-1.80;99.90
22908;DHT22;11620;50.050;8.690;2023-02-28T04:52:57;-1.80;99.90
22908;DHT22;11620;50.050;8.690;2023-02-28T04:55:44;-1.90;99.90
22908;DHT22;11620;50.050;8.690;2023-02-28T04:58:30;-1.90;99.90
22908;DHT22;11620;50.050;8.690;2023-02-28T05:01:27;-1.90;99.90
22908;DHT22;11620;50.050;8.690;2023-02-28T05:04:13;-2.00;99.90
22908;DHT22;11620;50.050;8.690;2023-02-28T05:07:01;-2.00;99.90
22908;DHT22;11620;50.050;8.690;2023-02-28T05:09:47;-2.00;99.90
22908;DHT22;11620;50.050;8.690;2023-02-28T05:12:33;-2.00;99.90
22908;DHT22;11620;50.050;8.690;2023-02-28T05:15:20;-2.00;99.90
22908;DHT22;11620;50.050;8.690;2023-02-28T05:18:08;-2.00;99.90
22908;DHT22;11620;50.050;8.690;2023-02-28T05:20:54;-2.10;99.90
22908;DHT22;11620;50.050;8.690;2023-02-28T05:23:40;-2.10;99.90
22908;DHT22;11620;50.050;8.690;2023-02-28T05:26:27;-2.00;99.90
22908;DHT22;11620;50.050;8.690;2023-02-28T05:29:14;-2.10;99.90
22908;DHT22;11620;50.050;8.690;2023-02-28T05:32:00;-2.00;99.90
22908;DHT22;11620;50.050;8.690;2023-02-28T05:34:46;-2.00;99.90
22908;DHT22;11620;50.050;8.690;2023-02-28T05:37:32;-2.00;99.90
22908;DHT22;11620;50.050;8.690;2023-02-28T05:40:19;-2.00;99.90
22908;DHT22;11620;50.050;8.690;2023-02-28T05:43:09;-2.00;99.90
22908;DHT22;11620;50.050;8.690;2023-02-28T05:45:56;-2.00;99.90
22908;DHT22;11620;50.050;8.690;2023-02-28T05:48:45;-2.00;99.90
22908;DHT22;11620;50.050;8.690;2023-02-28T05:51:31;-2.10;99.90
22908;DHT22;11620;50.050;8.690;2023-02-28T05:54:18;-2.10;99.90
22908;DHT22;11620;50.050;8.690;2023-02-28T05:57:04;-2.10;99.90
22908;DHT22;11620;50.050;8.690;2023-02-28T05:59:51;-2.10;99.90
22908;DHT22;11620;50.050;8.690;2023-02-28T06:02:39;-2.10;99.90
22908;DHT22;11620;50.050;8.690;2023-02-28T06:05:26;-2.10;99.90
22908;DHT22;11620;50.050;8.690;2023-02-28T06:08:12;-2.10;99.90
22908;DHT22;11620;50.050;8.690;2023-02-28T06:11:03;-2.10;99.90
22908;DHT22;11620;50.050;8.690;2023-02-28T06:13:49;-2.10;99.90
22908;DHT22;11620;50.050;8.690;2023-02-28T06:16:38;-2.10;99.90
22908;DHT22;11620;50.050;8.690;2023-02-28T06:19:25;-2.20;99.90
22908;DHT22;11620;50.050;8.690;2023-02-28T06:22:11;-2.20;99.90
22908;DHT22;11620;50.050;8.690;2023-02-28T06:24:58;-2.20;99.90
22908;DHT22;11620;50.050;8.690;2023-02-28T06:27:44;-2.20;99.90
22908;DHT22;11620;50.050;8.690;2023-02-28T06:30:31;-2.20;99.90
22908;DHT22;11620;50.050;8.690;2023-02-28T06:33:17;-2.20;99.90
22908;DHT22;11620;50.050;8.690;2023-02-28T06:36:04;-2.10;99.90
22908;DHT22;11620;50.050;8.690;2023-02-28T06:38:51;-2.10;99.90
22908;DHT22;11620;50.050;8.690;2023-02-28T06:41:40;-2.10;99.90
22908;DHT22;11620;50.050;8.690;2023-02-28T06:44:27;-2.00;99.90
22908;DHT22;11620;50.050;8.690;2023-02-28T06:47:13;-2.00;99.90
22908;DHT22;11620;50.050;8.690;2023-02-28T06:49:59;-2.00;99.90
22908;DHT22;11620;50.050;8.690;2023-02-28T06:52:47;-2.10;99.90
22908;DHT22;11620;50.050;8.690;2023-02-28T06:55:33;-2.10;99.90
22908;DHT22;11620;50.050;8.690;2023-02-28T06:58:20;-2.10;99.90
22908;DHT22;11620;50.050;8.690;2023-02-28T07:01:07;-2.00;99.90
22908;DHT22;11620;50.050;8.690;2023-02-28T07:03:54;-2.10;99.90
22908;DHT22;11620;50.050;8.690;2023-02-28T07:06:40;-2.10;99.90
22908;DHT22;11620;50.050;8.690;2023-02-28T07:09:27;-2.00;99.90
22908;DHT22;11620;50.050;8.690;2023-02-28T07:12:16;-2.00;99.90
22908;DHT22;11620;50.050;8.690;2023-02-28T07:15:03;-1.90;99.90
22908;DHT22;11620;50.050;8.690;2023-02-28T07:17:50;-1.90;99.90
22908;DHT22;11620;50.050;8.690;2023-02-28T07:20:36;-1.70;99.90
22908;DHT22;11620;50.050;8.690;2023-02-28T07:23:23;-1.70;99.90
22908;DHT22;11620;50.050;8.690;2023-02-28T07:26:15;-1.60;99.90
22908;DHT22;11620;50.050;8.690;2023-02-28T07:29:02;-1.50;99.90
22908;DHT22;11620;50.050;8.690;2023-02-28T07:31:49;-1.40;99.90
22908;DHT22;11620;50.050;8.690;2023-02-28T07:34:39;-1.20;99.90
22908;DHT22;11620;50.050;8.690;2023-02-28T07:37:25;-1.00;99.90
22908;DHT22;11620;50.050;8.690;2023-02-28T07:40:12;-0.90;99.90
22908;DHT22;11620;50.050;8.690;2023-02-28T07:42:59;-0.70;99.90
22908;DHT22;11620;50.050;8.690;2023-02-28T07:45:46;-0.60;99.90
22908;DHT22;11620;50.050;8.690;2023-02-28T07:48:32;-0.50;99.90
22908;DHT22;11620;50.050;8.690;2023-02-28T07:51:19;-0.50;99.90
22908;DHT22;11620;50.050;8.690;2023-02-28T07:54:05;-0.50;99.90
22908;DHT22;11620;50.050;8.690;2023-02-28T07:56:51;-0.40;99.90
22908;DHT22;11620;50.050;8.690;2023-02-28T07:59:38;-0.30;99.90
22908;DHT22;11620;50.050;8.690;2023-02-28T08:02:24;-0.10;99.90
22908;DHT22;11620;50.050;8.690;2023-02-28T08:05:11;0.00;99.90
22908;DHT22;11620;50.050;8.690;2023-02-28T08:07:57;0.00;99.90
22908;DHT22;11620;50.050;8.690;2023-02-28T08:10:43;0.30;99.90
22908;DHT22;11620;50.050;8.690;2023-02-28T08:13:30;0.40;99.90
22908;DHT22;11620;50.050;8.690;2023-02-28T08:16:17;0.50;99.90
22908;DHT22;11620;50.050;8.690;2023-02-28T08:19:08;0.60;99.90
22908;DHT22;11620;50.050;8.690;2023-02-28T08:21:55;0.70;99.90
22908;DHT22;11620;50.050;8.690;2023-02-28T08:24:43;0.90;99.90
22908;DHT22;11620;50.050;8.690;2023-02-28T08:27:29;1.10;99.90
22908;DHT22;11620;50.050;8.690;2023-02-28T08:30:16;1.40;99.90
22908;DHT22;11620;50.050;8.690;2023-02-28T08:33:02;1.60;99.90
22908;DHT22;11620;50.050;8.690;2023-02-28T08:35:51;1.70;99.90
22908;DHT22;11620;50.050;8.690;2023-02-28T08:38:38;1.70;99.90
22908;DHT22;11620;50.050;8.690;2023-02-28T08:41:24;2.00;99.90
22908;DHT22;11620;50.050;8.690;2023-02-28T08:44:10;2.20;99.90
22908;DHT22;11620;50.050;8.690;2023-02-28T08:46:57;2.40;99.90
22908;DHT22;11620;50.050;8.690;2023-02-28T08:49:43;2.50;99.90
22908;DHT22;11620;50.050;8.690;2023-02-28T08:52:29;2.90;99.90
22908;DHT22;11620;50.050;8.690;2023-02-28T08:55:16;3.00;99.90
22908;DHT22;11620;50.050;8.690;2023-02-28T08:58:02;3.20;99.90
22908;DHT22;11620;50.050;8.690;2023-02-28T09:00:49;3.30;99.90
22908;DHT22;11620;50.050;8.690;2023-02-28T09:03:36;3.50;99.90
22908;DHT22;11620;50.050;8.690;2023-02-28T09:06:24;3.50;99.90
22908;DHT22;11620;50.050;8.690;2023-02-28T09:09:11;3.50;99.90
22908;DHT22;11620;50.050;8.690;2023-02-28T09:11:57;3.60;99.90
22908;DHT22;11620;50.050;8.690;2023-02-28T09:14:44;3.90;99.90
22908;DHT22;11620;50.050;8.690;2023-02-28T09:17:30;4.20;99.90
22908;DHT22;11620;50.050;8.690;2023-02-28T09:20:17;4.10;99.90
22908;DHT22;11620;50.050;8.690;2023-02-28T09:23:03;4.10;99.90
22908;DHT22;11620;50.050;8.690;2023-02-28T09:25:52;4.10;99.90
22908;DHT22;11620;50.050;8.690;2023-02-28T09:28:38;4.30;99.90
22908;DHT22;11620;50.050;8.690;2023-02-28T09:31:27;4.60;99.90
22908;DHT22;11620;50.050;8.690;2023-02-28T09:34:14;4.60;99.90
22908;DHT22;11620;50.050;8.690;2023-02-28T09:37:00;4.90;99.90
22908;DHT22;11620;50.050;8.690;2023-02-28T09:39:46;5.10;99.90
22908;DHT22;11620;50.050;8.690;2023-02-28T09:42:34;5.00;99.90
22908;DHT22;11620;50.050;8.690;2023-02-28T09:45:37;5.10;99.90
22908;DHT22;11620;50.050;8.690;2023-02-28T09:48:29;5.00;99.90
22908;DHT22;11620;50.050;8.690;2023-02-28T09:51:27;5.10;99.90
22908;DHT22;11620;50.050;8.690;2023-02-28T09:54:21;5.50;99.90
22908;DHT22;11620;50.050;8.690;2023-02-28T09:57:22;5.30;99.90
22908;DHT22;11620;50.050;8.690;2023-02-28T10:06:17;4.50;99.90
22908;DHT22;11620;50.050;8.690;2023-02-28T10:09:06;4.80;99.90
22908;DHT22;11620;50.050;8.690;2023-02-28T10:12:00;5.20;99.90
22908;DHT22;11620;50.050;8.690;2023-02-28T10:14:51;5.30;99.90
22908;DHT22;11620;50.050;8.690;2023-02-28T10:17:40;5.60;99.90
22908;DHT22;11620;50.050;8.690;2023-02-28T10:20:32;5.70;99.90
22908;DHT22;11620;50.050;8.690;2023-02-28T10:23:23;5.90;99.90
22908;DHT22;11620;50.050;8.690;2023-02-28T10:26:13;5.80;99.90
22908;DHT22;11620;50.050;8.690;2023-02-28T10:29:02;5.30;99.90
22908;DHT22;11620;50.050;8.690;2023-02-28T10:31:49;5.10;99.90
22908;DHT22;11620;50.050;8.690;2023-02-28T10:34:35;5.00;99.90
22908;DHT22;11620;50.050;8.690;2023-02-28T10:37:22;5.40;99.90
22908;DHT22;11620;50.050;8.690;2023-02-28T10:49:21;5.10;99.90
22908;DHT22;11620;50.050;8.690;2023-02-28T10:52:08;4.60;99.90
22908;DHT22;11620;50.050;8.690;2023-02-28T10:55:14;4.20;99.90
22908;DHT22;11620;50.050;8.690;2023-02-28T10:58:01;4.30;99.90
22908;DHT22;11620;50.050;8.690;2023-02-28T11:00:47;4.20;99.90
22908;DHT22;11620;50.050;8.690;2023-02-28T11:03:35;4.10;99.90
22908;DHT22;11620;50.050;8.690;2023-02-28T11:06:23;4.00;99.90
22908;DHT22;11620;50.050;8.690;2023-02-28T11:09:31;3.90;99.90
22908;DHT22;11620;50.050;8.690;2023-02-28T11:12:39;3.80;99.90
22908;DHT22;11620;50.050;8.690;2023-02-28T11:15:29;3.70;99.90
22908;DHT22;11620;50.050;8.690;2023-02-28T11:18:29;3.70;99.90
22908;DHT22;11620;50.050;8.690;2023-02-28T11:21:26;3.60;99.90
22908;DHT22;11620;50.050;8.690;2023-02-28T11:27:46;3.90;99.90
22908;DHT22;11620;50.050;8.690;2023-02-28T11:30:40;4.30;99.90
22908;DHT22;11620;50.050;8.690;2023-02-28T11:36:30;5.10;99.90
22908;DHT22;11620;50.050;8.690;2023-02-28T11:39:17;5.20;99.90
22908;DHT22;11620;50.050;8.690;2023-02-28T11:48:23;6.10;99.90
22908;DHT22;11620;50.050;8.690;2023-02-28T11:51:21;6.80;99.90
22908;DHT22;11620;50.050;8.690;2023-02-28T11:54:32;7.10;99.90
22908;DHT22;11620;50.050;8.690;2023-02-28T12:09:37;7.30;99.90
22908;DHT22;11620;50.050;8.690;2023-02-28T12:18:42;7.00;99.90
22908;DHT22;11620;50.050;8.690;2023-02-28T12:21:38;6.60;99.90
22908;DHT22;11620;50.050;8.690;2023-02-28T12:24:45;6.90;99.90
22908;DHT22;11620;50.050;8.690;2023-02-28T12:27:38;7.00;99.90
22908;DHT22;11620;50.050;8.690;2023-02-28T12:30:29;7.30;99.90
22908;DHT22;11620;50.050;8.690;2023-02-28T12:33:19;7.50;99.90
22908;DHT22;11620;50.050;8.690;2023-02-28T12:36:11;7.50;99.90
22908;DHT22;11620;50.050;8.690;2023-02-28T12:39:08;7.90;99.90
22908;DHT22;11620;50.050;8.690;2023-02-28T12:42:00;8.10;99.90
22908;DHT22;11620;50.050;8.690;2023-02-28T12:45:10;8.00;99.90
22908;DHT22;11620;50.050;8.690;2023-02-28T12:48:05;7.80;99.90
22908;DHT22;11620;50.050;8.690;2023-02-28T12:50:52;7.70;99.90
22908;DHT22;11620;50.050;8.690;2023-02-28T12:59:57;7.80;99.90
22908;DHT22;11620;50.050;8.690;2023-02-28T13:09:09;8.00;99.90
22908;DHT22;11620;50.050;8.690;2023-02-28T13:11:57;7.90;99.90
22908;DHT22;11620;50.050;8.690;2023-02-28T13:14:44;8.20;99.90
22908;DHT22;11620;50.050;8.690;2023-02-28T13:17:39;8.30;99.90
22908;DHT22;11620;50.050;8.690;2023-02-28T13:20:35;8.50;99.90
22908;DHT22;11620;50.050;8.690;2023-02-28T13:24:00;8.50;99.90
22908;DHT22;11620;50.050;8.690;2023-02-28T13:35:14;8.20;99.90
22908;DHT22;11620;50.050;8.690;2023-02-28T13:38:13;8.30;99.90
22908;DHT22;11620;50.050;8.690;2023-02-28T13:44:22;8.60;99.90
22908;DHT22;11620;50.050;8.690;2023-02-28T13:56:17;8.00;99.90
22908;DHT22;11620;50.050;8.690;2023-02-28T13:59:22;7.90;99.90
22908;DHT22;11620;50.050;8.690;2023-02-28T14:05:22;8.20;99.90
22908;DHT22;11620;50.050;8.690;2023-02-28T14:08:14;8.40;99.90
22908;DHT22;11620;50.050;8.690;2023-02-28T14:11:22;8.30;99.90
22908;DHT22;11620;50.050;8.690;2023-02-28T14:17:21;8.20;99.90
22908;DHT22;11620;50.050;8.690;2023-02-28T14:20:15;8.10;99.90
22908;DHT22;11620;50.050;8.690;2023-02-28T14:26:34;8.00;99.90
22908;DHT22;11620;50.050;8.690;2023-02-28T14:36:35;7.80;99.90
22908;DHT22;11620;50.050;8.690;2023-02-28T14:39:23;7.90;99.90
22908;DHT22;11620;50.050;8.690;2023-02-28T14:42:32;7.70;99.90
22908;DHT22;11620;50.050;8.690;2023-02-28T14:45:20;7.60;99.90
22908;DHT22;11620;50.050;8.690;2023-02-28T14:48:09;7.50;99.90
22908;DHT22;11620;50.050;8.690;2023-02-28T14:50:59;7.70;99.90
22908;DHT22;11620;50.050;8.690;2023-02-28T14:53:52;7.70;99.90
22908;DHT22;11620;50.050;8.690;2023-02-28T14:56:42;7.70;99.90
22908;DHT22;11620;50.050;8.690;2023-02-28T14:59:31;7.60;99.90
22908;DHT22;11620;50.050;8.690;2023-02-28T15:02:21;7.40;99.90
22908;DHT22;11620;50.050;8.690;2023-02-28T15:08:15;7.00;99.90
22908;DHT22;11620;50.050;8.690;2023-02-28T15:11:17;6.90;99.90
22908;DHT22;11620;50.050;8.690;2023-02-28T15:14:18;6.80;99.90
22908;DHT22;11620;50.050;8.690;2023-02-28T15:17:08;6.70;99.90
22908;DHT22;11620;50.050;8.690;2023-02-28T15:19:57;6.70;99.90
22908;DHT22;11620;50.050;8.690;2023-02-28T15:22:46;6.60;99.90
22908;DHT22;11620;50.050;8.690;2023-02-28T15:25:34;6.60;99.90
22908;DHT22;11620;50.050;8.690;2023-02-28T15:28:22;6.50;99.90
22908;DHT22;11620;50.050;8.690;2023-02-28T15:34:58;6.30;99.90
22908;DHT22;11620;50.050;8.690;2023-02-28T15:40:45;6.10;99.90
22908;DHT22;11620;50.050;8.690;2023-02-28T15:43:39;6.10;99.90
22908;DHT22;11620;50.050;8.690;2023-02-28T15:46:26;6.00;99.90
22908;DHT22;11620;50.050;8.690;2023-02-28T15:49:18;5.80;99.90
22908;DHT22;11620;50.050;8.690;2023-02-28T15:52:05;5.70;99.90
22908;DHT22;11620;50.050;8.690;2023-02-28T15:54:52;5.60;99.90
22908;DHT22;11620;50.050;8.690;2023-02-28T15:57:39;5.60;99.90
22908;DHT22;11620;50.050;8.690;2023-02-28T16:00:28;5.50;99.90
22908;DHT22;11620;50.050;8.690;2023-02-28T16:03:34;5.50;99.90
22908;DHT22;11620;50.050;8.690;2023-02-28T16:06:47;5.40;99.90
22908;DHT22;11620;50.050;8.690;2023-02-28T16:09:46;5.30;99.90
22908;DHT22;11620;50.050;8.690;2023-02-28T16:12:34;5.20;99.90
22908;DHT22;11620;50.050;8.690;2023-02-28T16:15:24;5.10;99.90
22908;DHT22;11620;50.050;8.690;2023-02-28T16:18:12;5.00;99.90
22908;DHT22;11620;50.050;8.690;2023-02-28T16:20:59;5.00;99.90
22908;DHT22;11620;50.050;8.690;2023-02-28T16:23:25;5.00;99.90
22908;DHT22;11620;50.050;8.690;2023-02-28T16:25:51;5.00;99.90
22908;DHT22;11620;50.050;8.690;2023-02-28T16:28:21;5.00;99.90
22908;DHT22;11620;50.050;8.690;2023-02-28T16:30:51;5.00;99.90
22908;DHT22;11620;50.050;8.690;2023-02-28T16:33:17;4.90;99.90
22908;DHT22;11620;50.050;8.690;2023-02-28T16:35:43;4.80;99.90
22908;DHT22;11620;50.050;8.690;2023-02-28T16:38:09;4.70;99.90
22908;DHT22;11620;50.050;8.690;2023-02-28T16:40:36;4.60;99.90
22908;DHT22;11620;50.050;8.690;2023-02-28T16:43:07;4.60;99.90
22908;DHT22;11620;50.050;8.690;2023-02-28T16:45:35;4.50;99.90
22908;DHT22;11620;50.050;8.690;2023-02-28T16:48:01;4.40;99.90
22908;DHT22;11620;50.050;8.690;2023-02-28T16:50:46;4.30;99.90
22908;DHT22;11620;50.050;8.690;2023-02-28T16:53:32;4.40;99.90
22908;DHT22;11620;50.050;8.690;2023-02-28T16:56:21;4.30;99.90
22908;DHT22;11620;50.050;8.690;2023-02-28T16:59:08;4.20;99.90
22908;DHT22;11620;50.050;8.690;2023-02-28T17:01:56;4.10;99.90
22908;DHT22;11620;50.050;8.690;2023-02-28T17:04:46;4.00;99.90
22908;DHT22;11620;50.050;8.690;2023-02-28T17:07:32;4.00;99.90
22908;DHT22;11620;50.050;8.690;2023-02-28T17:10:21;4.00;99.90
22908;DHT22;11620;50.050;8.690;2023-02-28T17:13:08;4.00;99.90
22908;DHT22;11620;50.050;8.690;2023-02-28T17:15:55;3.90;99.90
22908;DHT22;11620;50.050;8.690;2023-02-28T17:18:42;3.80;99.90
22908;DHT22;11620;50.050;8.690;2023-02-28T17:21:28;3.80;99.90
22908;DHT22;11620;50.050;8.690;2023-02-28T17:24:14;3.80;99.90
22908;DHT22;11620;50.050;8.690;2023-02-28T17:27:01;3.70;99.90
22908;DHT22;11620;50.050;8.690;2023-02-28T17:29:47;3.70;99.90
22908;DHT22;11620;50.050;8.690;2023-02-28T17:32:34;3.70;99.90
22908;DHT22;11620;50.050;8.690;2023-02-28T17:35:21;3.60;99.90
22908;DHT22;11620;50.050;8.690;2023-02-28T17:38:17;3.60;99.90
22908;DHT22;11620;50.050;8.690;2023-02-28T17:41:04;3.60;99.90
22908;DHT22;11620;50.050;8.690;2023-02-28T17:43:50;3.50;99.90
22908;DHT22;11620;50.050;8.690;2023-02-28T17:46:37;3.50;99.90
22908;DHT22;11620;50.050;8.690;2023-02-28T17:49:23;3.40;99.90
22908;DHT22;11620;50.050;8.690;2023-02-28T17:52:09;3.40;99.90
22908;DHT22;11620;50.050;8.690;2023-02-28T17:54:56;3.40;99.90
22908;DHT22;11620;50.050;8.690;2023-02-28T17:57:42;3.30;99.90
22908;DHT22;11620;50.050;8.690;2023-02-28T18:00:29;3.30;99.90
22908;DHT22;11620;50.050;8.690;2023-02-28T18:03:15;3.30;99.90
22908;DHT22;11620;50.050;8.690;2023-02-28T18:06:02;3.30;99.90
22908;DHT22;11620;50.050;8.690;2023-02-28T18:08:49;3.30;99.90
22908;DHT22;11620;50.050;8.690;2023-02-28T18:11:37;3.30;99.90
22908;DHT22;11620;50.050;8.690;2023-02-28T18:14:34;3.20;99.90
22908;DHT22;11620;50.050;8.690;2023-02-28T18:17:20;3.20;99.90
22908;DHT22;11620;50.050;8.690;2023-02-28T18:20:07;3.20;99.90
22908;DHT22;11620;50.050;8.690;2023-02-28T18:22:55;3.20;99.90
22908;DHT22;11620;50.050;8.690;2023-02-28T18:25:41;3.20;99.90
22908;DHT22;11620;50.050;8.690;2023-02-28T18:28:28;3.10;99.90
22908;DHT22;11620;50.050;8.690;2023-02-28T18:31:17;3.10;99.90
22908;DHT22;11620;50.050;8.690;2023-02-28T18:34:04;3.10;99.90
22908;DHT22;11620;50.050;8.690;2023-02-28T18:36:51;3.10;99.90
22908;DHT22;11620;50.050;8.690;2023-02-28T18:39:38;3.00;99.90
22908;DHT22;11620;50.050;8.690;2023-02-28T18:42:24;3.00;99.90
22908;DHT22;11620;50.050;8.690;2023-02-28T18:45:11;2.90;99.90
22908;DHT22;11620;50.050;8.690;2023-02-28T18:47:57;2.80;99.90
22908;DHT22;11620;50.050;8.690;2023-02-28T18:50:47;2.80;99.90
22908;DHT22;11620;50.050;8.690;2023-02-28T18:53:34;2.80;99.90
22908;DHT22;11620;50.050;8.690;2023-02-28T18:56:23;2.70;99.90
22908;DHT22;11620;50.050;8.690;2023-02-28T18:59:10;2.60;99.90
22908;DHT22;11620;50.050;8.690;2023-02-28T19:01:56;2.60;99.90
22908;DHT22;11620;50.050;8.690;2023-02-28T19:04:43;2.60;99.90
22908;DHT22;11620;50.050;8.690;2023-02-28T19:07:30;2.60;99.90
22908;DHT22;11620;50.050;8.690;2023-02-28T19:10:16;2.50;99.90
22908;DHT22;11620;50.050;8.690;2023-02-28T19:13:02;2.50;99.90
22908;DHT22;11620;50.050;8.690;2023-02-28T19:15:49;2.50;99.90
22908;DHT22;11620;50.050;8.690;2023-02-28T19:18:36;2.40;99.90
22908;DHT22;11620;50.050;8.690;2023-02-28T19:21:23;2.30;99.90
22908;DHT22;11620;50.050;8.690;2023-02-28T19:24:11;2.20;99.90
22908;DHT22;11620;50.050;8.690;2023-02-28T19:26:57;2.10;99.90
22908;DHT22;11620;50.050;8.690;2023-02-28T19:29:47;2.10;99.90
22908;DHT22;11620;50.050;8.690;2023-02-28T19:32:34;2.00;99.90
22908;DHT22;11620;50.050;8.690;2023-02-28T19:35:21;2.00;99.90
22908;DHT22;11620;50.050;8.690;2023-02-28T19:38:07;1.90;99.90
22908;DHT22;11620;50.050;8.690;2023-02-28T19:41:05;1.90;99.90
22908;DHT22;11620;50.050;8.690;2023-02-28T19:43:52;1.80;99.90
22908;DHT22;11620;50.050;8.690;2023-02-28T19:46:39;1.80;99.90
22908;DHT22;11620;50.050;8.690;2023-02-28T19:49:26;1.80;99.90
22908;DHT22;11620;50.050;8.690;2023-02-28T19:52:12;1.70;99.90
22908;DHT22;11620;50.050;8.690;2023-02-28T19:54:59;1.70;99.90
22908;DHT22;11620;50.050;8.690;2023-02-28T19:57:45;1.60;99.90
22908;DHT22;11620;50.050;8.690;2023-02-28T20:00:31;1.60;99.90
22908;DHT22;11620;50.050;8.690;2023-02-28T20:03:18;1.60;99.90
22908;DHT22;11620;50.050;8.690;2023-02-28T20:06:07;1.60;99.90
22908;DHT22;11620;50.050;8.690;2023-02-28T20:08:54;1.60;99.90
22908;DHT22;11620;50.050;8.690;2023-02-28T20:11:42;1.50;99.90
22908;DHT22;11620;50.050;8.690;2023-02-28T20:14:28;1.50;99.90